sensor_id;sensor_type;location;lat;lon;timestamp;temperature;humidity
7290;DHT22;63176;52.678;13.250;2022-10-31T00:02:07;9.70;99.90
7290;DHT22;63176;52.678;13.250;2022-10-31T00:04:33;9.70;99.90
7290;DHT22;63176;52.678;13.250;2022-10-31T00:06:59;9.70;99.90
7290;DHT22;63176;52.678;13.250;2022-10-31T00:09:24;9.70;99.90
7290;DHT22;63176;52.678;13.250;2022-10-31T00:11:50;9.70;99.90
7290;DHT22;63176;52.678;13.250;2022-10-31T00:14:15;9.60;99.90
7290;DHT22;63176;52.678;13.250;2022-10-31T00:16:41;9.60;99.90
7290;DHT22;63176;52.678;13.250;2022-10-31T00:19:08;9.60;99.90
7290;DHT22;63176;52.678;13.250;2022-10-31T00:21:34;9.60;99.90
7290;DHT22;63176;52.678;13.250;2022-10-31T00:24:01;9.60;99.90
7290;DHT22;63176;52.678;13.250;2022-10-31T00:26:28;9.60;99.90
7290;DHT22;63176;52.678;13.250;2022-10-31T00:28:54;9.60;99.90
7290;DHT22;63176;52.678;13.250;2022-10-31T00:31:20;9.50;99.90
7290;DHT22;63176;52.678;13.250;2022-10-31T00:33:45;9.50;99.90
7290;DHT22;63176;52.678;13.250;2022-10-31T00:36:16;9.50;99.90
7290;DHT22;63176;52.678;13.250;2022-10-31T00:38:43;9.50;99.90
7290;DHT22;63176;52.678;13.250;2022-10-31T00:41:10;9.50;99.90
7290;DHT22;63176;52.678;13.250;2022-10-31T00:43:36;9.50;99.90
7290;DHT22;63176;52.678;13.250;2022-10-31T00:46:02;9.50;99.90
7290;DHT22;63176;52.678;13.250;2022-10-31T00:48:28;9.50;99.90
7290;DHT22;63176;52.678;13.250;2022-10-31T00:50:54;9.50;99.90
7290;DHT22;63176;52.678;13.250;2022-10-31T00:53:20;9.40;99.90
7290;DHT22;63176;52.678;13.250;2022-10-31T00:55:46;9.40;99.90
7290;DHT22;63176;52.678;13.250;2022-10-31T00:58:11;9.40;99.90
7290;DHT22;63176;52.678;13.250;2022-10-31T01:00:37;9.30;99.90
7290;DHT22;63176;52.678;13.250;2022-10-31T01:03:03;9.30;99.90
7290;DHT22;63176;52.678;13.250;2022-10-31T01:05:28;9.30;99.90
7290;DHT22;63176;52.678;13.250;2022-10-31T01:07:54;9.30;99.90
7290;DHT22;63176;52.678;13.250;2022-10-31T01:10:19;9.30;99.90
7290;DHT22;63176;52.678;13.250;2022-10-31T01:12:47;9.30;99.90
7290;DHT22;63176;52.678;13.250;2022-10-31T01:15:18;9.20;99.90
7290;DHT22;63176;52.678;13.250;2022-10-31T01:17:44;9.20;99.90
7290;DHT22;63176;52.678;13.250;2022-10-31T01:20:12;9.20;99.90
7290;DHT22;63176;52.678;13.250;2022-10-31T01:22:38;9.20;99.90
7290;DHT22;63176;52.678;13.250;2022-10-31T01:25:04;9.20;99.90
7290;DHT22;63176;52.678;13.250;2022-10-31T01:27:31;9.10;99.90
7290;DHT22;63176;52.678;13.250;2022-10-31T01:29:57;9.20;99.90
7290;DHT22;63176;52.678;13.250;2022-10-31T01:32:23;9.20;99.90
7290;DHT22;63176;52.678;13.250;2022-10-31T01:34:49;9.10;99.90
7290;DHT22;63176;52.678;13.250;2022-10-31T01:37:14;9.10;99.90
7290;DHT22;63176;52.678;13.250;2022-10-31T01:39:40;9.10;99.90
7290;DHT22;63176;52.678;13.250;2022-10-31T01:42:06;9.10;99.90
7290;DHT22;63176;52.678;13.250;2022-10-31T01:47:01;9.10;99.90
7290;DHT22;63176;52.678;13.250;2022-10-31T01:49:51;9.10;99.90
7290;DHT22;63176;52.678;13.250;2022-10-31T01:52:38;9.10;99.90
7290;DHT22;63176;52.678;13.250;2022-10-31T01:55:09;9.20;99.90
7290;DHT22;63176;52.678;13.250;2022-10-31T01:57:39;9.20;99.90
7290;DHT22;63176;52.678;13.250;2022-10-31T02:00:08;9.20;99.90
7290;DHT22;63176;52.678;13.250;2022-10-31T02:02:34;9.10;99.90
7290;DHT22;63176;52.678;13.250;2022-10-31T02:05:05;9.10;99.90
7290;DHT22;63176;52.678;13.250;2022-10-31T02:10:21;9.10;99.90
7290;DHT22;63176;52.678;13.250;2022-10-31T02:12:47;9.10;99.90
7290;DHT22;63176;52.678;13.250;2022-10-31T02:15:13;9.10;99.90
7290;DHT22;63176;52.678;13.250;2022-10-31T02:17:38;9.10;99.90
7290;DHT22;63176;52.678;13.250;2022-10-31T02:20:21;9.10;99.90
7290;DHT22;63176;52.678;13.250;2022-10-31T02:26:14;9.10;99.90
7290;DHT22;63176;52.678;13.250;2022-10-31T02:42:07;9.00;99.90
7290;DHT22;63176;52.678;13.250;2022-10-31T02:44:45;8.90;99.90
7290;DHT22;63176;52.678;13.250;2022-10-31T02:47:18;8.90;99.90
7290;DHT22;63176;52.678;13.250;2022-10-31T02:49:54;8.90;99.90
7290;DHT22;63176;52.678;13.250;2022-10-31T02:52:27;8.80;99.90
7290;DHT22;63176;52.678;13.250;2022-10-31T02:54:53;8.80;99.90
7290;DHT22;63176;52.678;13.250;2022-10-31T02:57:27;8.80;99.90
7290;DHT22;63176;52.678;13.250;2022-10-31T02:59:58;8.80;99.90
7290;DHT22;63176;52.678;13.250;2022-10-31T03:05:31;8.70;99.90
7290;DHT22;63176;52.678;13.250;2022-10-31T03:07:57;8.70;99.90
7290;DHT22;63176;52.678;13.250;2022-10-31T03:15:43;8.70;99.90
7290;DHT22;63176;52.678;13.250;2022-10-31T03:18:12;8.60;99.90
7290;DHT22;63176;52.678;13.250;2022-10-31T03:23:26;8.60;99.90
7290;DHT22;63176;52.678;13.250;2022-10-31T03:25:53;8.60;99.90
7290;DHT22;63176;52.678;13.250;2022-10-31T03:28:25;8.60;99.90
7290;DHT22;63176;52.678;13.250;2022-10-31T03:30:54;8.50;99.90
7290;DHT22;63176;52.678;13.250;2022-10-31T03:33:26;8.50;99.90
7290;DHT22;63176;52.678;13.250;2022-10-31T03:35:54;8.50;99.90
7290;DHT22;63176;52.678;13.250;2022-10-31T03:38:21;8.50;99.90
7290;DHT22;63176;52.678;13.250;2022-10-31T03:40:48;8.50;99.90
7290;DHT22;63176;52.678;13.250;2022-10-31T03:43:20;8.50;99.90
7290;DHT22;63176;52.678;13.250;2022-10-31T03:45:47;8.50;99.90
7290;DHT22;63176;52.678;13.250;2022-10-31T03:48:15;8.50;99.90
7290;DHT22;63176;52.678;13.250;2022-10-31T03:53:32;8.50;99.90
7290;DHT22;63176;52.678;13.250;2022-10-31T03:56:12;8.50;99.90
7290;DHT22;63176;52.678;13.250;2022-10-31T03:58:58;8.60;99.90
7290;DHT22;63176;52.678;13.250;2022-10-31T04:01:27;8.50;99.90
7290;DHT22;63176;52.678;13.250;2022-10-31T04:03:55;8.60;99.90
7290;DHT22;63176;52.678;13.250;2022-10-31T04:06:22;8.60;99.90
7290;DHT22;63176;52.678;13.250;2022-10-31T04:08:52;8.70;99.90
7290;DHT22;63176;52.678;13.250;2022-10-31T04:11:22;8.70;99.90
7290;DHT22;63176;52.678;13.250;2022-10-31T04:13:49;8.60;99.90
7290;DHT22;63176;52.678;13.250;2022-10-31T04:16:16;8.60;99.90
7290;DHT22;63176;52.678;13.250;2022-10-31T04:18:42;8.60;99.90
7290;DHT22;63176;52.678;13.250;2022-10-31T04:21:08;8.60;99.90
7290;DHT22;63176;52.678;13.250;2022-10-31T04:23:35;8.60;99.90
7290;DHT22;63176;52.678;13.250;2022-10-31T04:26:01;8.60;99.90
7290;DHT22;63176;52.678;13.250;2022-10-31T04:28:26;8.50;99.90
7290;DHT22;63176;52.678;13.250;2022-10-31T04:30:52;8.50;99.90
7290;DHT22;63176;52.678;13.250;2022-10-31T04:33:18;8.50;99.90
7290;DHT22;63176;52.678;13.250;2022-10-31T04:35:44;8.50;99.90
7290;DHT22;63176;52.678;13.250;2022-10-31T04:38:10;8.50;99.90
7290;DHT22;63176;52.678;13.250;2022-10-31T04:40:36;8.50;99.90
7290;DHT22;63176;52.678;13.250;2022-10-31T04:43:02;8.50;99.90
7290;DHT22;63176;52.678;13.250;2022-10-31T04:45:27;8.50;99.90
7290;DHT22;63176;52.678;13.250;2022-10-31T04:47:53;8.50;99.90
7290;DHT22;63176;52.678;13.250;2022-10-31T04:50:18;8.50;99.90
7290;DHT22;63176;52.678;13.250;2022-10-31T04:52:45;8.60;99.90
7290;DHT22;63176;52.678;13.250;2022-10-31T04:55:14;8.50;99.90
7290;DHT22;63176;52.678;13.250;2022-10-31T04:57:47;8.50;99.90
7290;DHT22;63176;52.678;13.250;2022-10-31T05:00:15;8.50;99.90
7290;DHT22;63176;52.678;13.250;2022-10-31T05:05:14;8.50;99.90
7290;DHT22;63176;52.678;13.250;2022-10-31T05:07:45;8.60;99.90
7290;DHT22;63176;52.678;13.250;2022-10-31T05:10:13;8.50;99.90
7290;DHT22;63176;52.678;13.250;2022-10-31T05:12:52;8.50;99.90
7290;DHT22;63176;52.678;13.250;2022-10-31T05:15:19;8.50;99.90
7290;DHT22;63176;52.678;13.250;2022-10-31T05:17:47;8.50;99.90
7290;DHT22;63176;52.678;13.250;2022-10-31T05:20:14;8.50;99.90
7290;DHT22;63176;52.678;13.250;2022-10-31T05:22:50;8.40;99.90
7290;DHT22;63176;52.678;13.250;2022-10-31T05:25:18;8.50;99.90
7290;DHT22;63176;52.678;13.250;2022-10-31T05:27:47;8.50;99.90
7290;DHT22;63176;52.678;13.250;2022-10-31T05:30:15;8.50;99.90
7290;DHT22;63176;52.678;13.250;2022-10-31T05:32:44;8.50;99.90
7290;DHT22;63176;52.678;13.250;2022-10-31T05:35:13;8.50;99.90
7290;DHT22;63176;52.678;13.250;2022-10-31T05:37:39;8.50;99.90
7290;DHT22;63176;52.678;13.250;2022-10-31T05:40:07;8.50;99.90
7290;DHT22;63176;52.678;13.250;2022-10-31T05:42:33;8.50;99.90
7290;DHT22;63176;52.678;13.250;2022-10-31T05:44:58;8.50;99.90
7290;DHT22;63176;52.678;13.250;2022-10-31T05:47:24;8.50;99.90
7290;DHT22;63176;52.678;13.250;2022-10-31T05:49:50;8.50;99.90
7290;DHT22;63176;52.678;13.250;2022-10-31T05:52:16;8.60;99.90
7290;DHT22;63176;52.678;13.250;2022-10-31T05:54:42;8.60;99.90
7290;DHT22;63176;52.678;13.250;2022-10-31T05:57:08;8.60;99.90
7290;DHT22;63176;52.678;13.250;2022-10-31T05:59:33;8.60;99.90
7290;DHT22;63176;52.678;13.250;2022-10-31T06:01:59;8.60;99.90
7290;DHT22;63176;52.678;13.250;2022-10-31T06:04:25;8.70;99.90
7290;DHT22;63176;52.678;13.250;2022-10-31T06:06:50;8.60;99.90
7290;DHT22;63176;52.678;13.250;2022-10-31T06:09:16;8.60;99.90
7290;DHT22;63176;52.678;13.250;2022-10-31T06:11:41;8.70;99.90
7290;DHT22;63176;52.678;13.250;2022-10-31T06:14:07;8.70;99.90
7290;DHT22;63176;52.678;13.250;2022-10-31T06:16:33;8.70;99.90
7290;DHT22;63176;52.678;13.250;2022-10-31T06:18:58;8.70;99.90
7290;DHT22;63176;52.678;13.250;2022-10-31T06:21:24;8.70;99.90
7290;DHT22;63176;52.678;13.250;2022-10-31T06:23:50;8.70;99.90
7290;DHT22;63176;52.678;13.250;2022-10-31T06:26:16;8.70;99.90
7290;DHT22;63176;52.678;13.250;2022-10-31T06:28:41;8.70;99.90
7290;DHT22;63176;52.678;13.250;2022-10-31T06:31:07;8.70;99.90
7290;DHT22;63176;52.678;13.250;2022-10-31T06:33:33;8.80;99.90
7290;DHT22;63176;52.678;13.250;2022-10-31T06:35:59;8.80;99.90
7290;DHT22;63176;52.678;13.250;2022-10-31T06:38:26;8.90;99.90
7290;DHT22;63176;52.678;13.250;2022-10-31T06:40:54;8.90;99.90
7290;DHT22;63176;52.678;13.250;2022-10-31T06:43:21;8.90;99.90
7290;DHT22;63176;52.678;13.250;2022-10-31T06:45:47;8.90;99.90
7290;DHT22;63176;52.678;13.250;2022-10-31T06:48:12;9.00;99.90
7290;DHT22;63176;52.678;13.250;2022-10-31T06:50:38;9.10;99.90
7290;DHT22;63176;52.678;13.250;2022-10-31T06:53:04;9.20;99.90
7290;DHT22;63176;52.678;13.250;2022-10-31T06:55:29;9.30;99.90
7290;DHT22;63176;52.678;13.250;2022-10-31T06:57:57;9.30;99.90
7290;DHT22;63176;52.678;13.250;2022-10-31T07:00:24;9.40;99.90
7290;DHT22;63176;52.678;13.250;2022-10-31T07:05:27;9.60;99.90
7290;DHT22;63176;52.678;13.250;2022-10-31T07:07:54;9.70;99.90
7290;DHT22;63176;52.678;13.250;2022-10-31T07:10:20;9.80;99.90
7290;DHT22;63176;52.678;13.250;2022-10-31T07:12:46;9.90;99.90
7290;DHT22;63176;52.678;13.250;2022-10-31T07:15:12;10.10;99.90
7290;DHT22;63176;52.678;13.250;2022-10-31T07:17:38;10.10;99.90
7290;DHT22;63176;52.678;13.250;2022-10-31T07:20:04;10.20;99.90
7290;DHT22;63176;52.678;13.250;2022-10-31T07:22:37;10.30;99.90
7290;DHT22;63176;52.678;13.250;2022-10-31T07:25:03;10.40;99.90
7290;DHT22;63176;52.678;13.250;2022-10-31T07:27:29;10.40;99.90
7290;DHT22;63176;52.678;13.250;2022-10-31T07:30:00;10.40;99.90
7290;DHT22;63176;52.678;13.250;2022-10-31T07:32:25;10.50;99.90
7290;DHT22;63176;52.678;13.250;2022-10-31T07:34:51;10.50;99.90
7290;DHT22;63176;52.678;13.250;2022-10-31T07:37:16;10.50;99.90
7290;DHT22;63176;52.678;13.250;2022-10-31T07:39:42;10.60;99.90
7290;DHT22;63176;52.678;13.250;2022-10-31T07:42:08;10.60;99.90
7290;DHT22;63176;52.678;13.250;2022-10-31T07:44:33;10.60;99.90
7290;DHT22;63176;52.678;13.250;2022-10-31T07:46:59;10.70;99.90
7290;DHT22;63176;52.678;13.250;2022-10-31T07:49:24;10.70;99.90
7290;DHT22;63176;52.678;13.250;2022-10-31T07:51:50;10.70;99.90
7290;DHT22;63176;52.678;13.250;2022-10-31T07:54:16;10.70;99.90
7290;DHT22;63176;52.678;13.250;2022-10-31T07:56:42;10.80;99.90
7290;DHT22;63176;52.678;13.250;2022-10-31T07:59:07;10.80;99.90
7290;DHT22;63176;52.678;13.250;2022-10-31T08:01:33;10.80;99.90
7290;DHT22;63176;52.678;13.250;2022-10-31T08:03:58;10.80;99.90
7290;DHT22;63176;52.678;13.250;2022-10-31T08:06:24;10.90;99.90
7290;DHT22;63176;52.678;13.250;2022-10-31T08:08:50;10.90;99.90
7290;DHT22;63176;52.678;13.250;2022-10-31T08:11:16;11.00;99.90
7290;DHT22;63176;52.678;13.250;2022-10-31T08:13:41;11.10;99.90
7290;DHT22;63176;52.678;13.250;2022-10-31T08:16:09;11.20;99.90
7290;DHT22;63176;52.678;13.250;2022-10-31T08:18:34;11.30;99.90
7290;DHT22;63176;52.678;13.250;2022-10-31T08:21:02;11.30;99.90
7290;DHT22;63176;52.678;13.250;2022-10-31T08:23:35;11.30;99.90
7290;DHT22;63176;52.678;13.250;2022-10-31T08:26:00;11.30;99.90
7290;DHT22;63176;52.678;13.250;2022-10-31T08:28:26;11.30;99.90
7290;DHT22;63176;52.678;13.250;2022-10-31T08:30:52;11.40;99.90
7290;DHT22;63176;52.678;13.250;2022-10-31T08:33:18;11.40;99.90
7290;DHT22;63176;52.678;13.250;2022-10-31T08:35:44;11.40;99.90
7290;DHT22;63176;52.678;13.250;2022-10-31T08:38:11;11.40;99.90
7290;DHT22;63176;52.678;13.250;2022-10-31T08:40:37;11.50;99.90
7290;DHT22;63176;52.678;13.250;2022-10-31T08:43:04;11.60;99.90
7290;DHT22;63176;52.678;13.250;2022-10-31T08:45:31;11.70;99.90
7290;DHT22;63176;52.678;13.250;2022-10-31T08:48:04;11.70;99.90
7290;DHT22;63176;52.678;13.250;2022-10-31T08:50:31;11.80;99.90
7290;DHT22;63176;52.678;13.250;2022-10-31T08:53:11;11.90;99.90
7290;DHT22;63176;52.678;13.250;2022-10-31T08:55:39;12.10;1.00
7290;DHT22;63176;52.678;13.250;2022-10-31T08:58:11;12.20;1.00
7290;DHT22;63176;52.678;13.250;2022-10-31T09:00:37;12.30;1.00
7290;DHT22;63176;52.678;13.250;2022-10-31T09:03:10;12.40;1.00
7290;DHT22;63176;52.678;13.250;2022-10-31T09:05:36;12.50;1.00
7290;DHT22;63176;52.678;13.250;2022-10-31T09:08:03;12.50;1.00
7290;DHT22;63176;52.678;13.250;2022-10-31T09:10:30;12.60;1.00
7290;DHT22;63176;52.678;13.250;2022-10-31T09:13:00;12.70;1.00
7290;DHT22;63176;52.678;13.250;2022-10-31T09:15:27;12.80;1.00
7290;DHT22;63176;52.678;13.250;2022-10-31T09:17:53;12.90;1.00
7290;DHT22;63176;52.678;13.250;2022-10-31T09:20:20;12.90;1.00
7290;DHT22;63176;52.678;13.250;2022-10-31T09:22:45;13.00;1.00
7290;DHT22;63176;52.678;13.250;2022-10-31T09:25:11;13.10;1.00
7290;DHT22;63176;52.678;13.250;2022-10-31T09:27:37;13.20;1.00
7290;DHT22;63176;52.678;13.250;2022-10-31T09:30:04;13.30;1.00
7290;DHT22;63176;52.678;13.250;2022-10-31T09:32:29;13.30;1.00
7290;DHT22;63176;52.678;13.250;2022-10-31T09:34:55;13.30;1.00
7290;DHT22;63176;52.678;13.250;2022-10-31T09:37:21;13.30;1.00
7290;DHT22;63176;52.678;13.250;2022-10-31T09:39:46;13.40;1.00
7290;DHT22;63176;52.678;13.250;2022-10-31T09:50:40;13.70;1.00
7290;DHT22;63176;52.678;13.250;2022-10-31T09:55:46;13.80;1.00
7290;DHT22;63176;52.678;13.250;2022-10-31T09:58:20;13.80;1.00
7290;DHT22;63176;52.678;13.250;2022-10-31T10:00:48;13.90;1.00
7290;DHT22;63176;52.678;13.250;2022-10-31T10:03:44;13.90;1.00
7290;DHT22;63176;52.678;13.250;2022-10-31T10:06:21;14.00;1.00
7290;DHT22;63176;52.678;13.250;2022-10-31T10:08:48;14.10;1.00
7290;DHT22;63176;52.678;13.250;2022-10-31T10:16:40;14.40;1.00
7290;DHT22;63176;52.678;13.250;2022-10-31T10:21:51;14.50;1.00
7290;DHT22;63176;52.678;13.250;2022-10-31T10:29:40;14.60;1.00
7290;DHT22;63176;52.678;13.250;2022-10-31T10:32:40;14.60;1.00
7290;DHT22;63176;52.678;13.250;2022-10-31T10:35:22;14.70;1.00
7290;DHT22;63176;52.678;13.250;2022-10-31T10:37:52;14.70;1.00
7290;DHT22;63176;52.678;13.250;2022-10-31T10:40:21;14.70;1.00
7290;DHT22;63176;52.678;13.250;2022-10-31T10:46:19;14.80;99.90
7290;DHT22;63176;52.678;13.250;2022-10-31T10:59:52;15.00;99.90
7290;DHT22;63176;52.678;13.250;2022-10-31T11:02:25;15.00;99.90
7290;DHT22;63176;52.678;13.250;2022-10-31T11:04:56;15.10;99.90
7290;DHT22;63176;52.678;13.250;2022-10-31T11:07:22;15.10;99.90
7290;DHT22;63176;52.678;13.250;2022-10-31T11:09:48;15.20;99.90
7290;DHT22;63176;52.678;13.250;2022-10-31T11:12:29;15.20;99.90
7290;DHT22;63176;52.678;13.250;2022-10-31T11:14:58;15.20;99.90
7290;DHT22;63176;52.678;13.250;2022-10-31T11:17:37;15.30;99.90
7290;DHT22;63176;52.678;13.250;2022-10-31T11:20:20;15.30;99.90
7290;DHT22;63176;52.678;13.250;2022-10-31T11:22:48;15.30;99.90
7290;DHT22;63176;52.678;13.250;2022-10-31T11:25:23;15.30;99.90
7290;DHT22;63176;52.678;13.250;2022-10-31T11:28:08;15.30;99.90
7290;DHT22;63176;52.678;13.250;2022-10-31T11:30:46;15.40;99.90
7290;DHT22;63176;52.678;13.250;2022-10-31T11:33:22;15.40;99.90
7290;DHT22;63176;52.678;13.250;2022-10-31T11:35:50;15.40;99.90
7290;DHT22;63176;52.678;13.250;2022-10-31T11:38:21;15.50;99.90
7290;DHT22;63176;52.678;13.250;2022-10-31T11:41:14;15.50;99.90
7290;DHT22;63176;52.678;13.250;2022-10-31T11:43:48;15.50;99.90
7290;DHT22;63176;52.678;13.250;2022-10-31T11:46:19;15.60;99.90
7290;DHT22;63176;52.678;13.250;2022-10-31T11:48:52;15.60;99.90
7290;DHT22;63176;52.678;13.250;2022-10-31T11:51:32;15.60;99.90
7290;DHT22;63176;52.678;13.250;2022-10-31T11:53:59;15.70;99.90
7290;DHT22;63176;52.678;13.250;2022-10-31T11:56:27;15.70;99.90
7290;DHT22;63176;52.678;13.250;2022-10-31T11:59:04;15.70;99.90
7290;DHT22;63176;52.678;13.250;2022-10-31T12:01:32;15.70;99.90
7290;DHT22;63176;52.678;13.250;2022-10-31T12:04:08;15.70;99.90
7290;DHT22;63176;52.678;13.250;2022-10-31T12:06:36;15.70;99.90
7290;DHT22;63176;52.678;13.250;2022-10-31T12:09:20;15.70;99.90
7290;DHT22;63176;52.678;13.250;2022-10-31T12:11:50;15.70;99.90
7290;DHT22;63176;52.678;13.250;2022-10-31T12:14:52;15.70;99.90
7290;DHT22;63176;52.678;13.250;2022-10-31T12:17:23;15.70;99.90
7290;DHT22;63176;52.678;13.250;2022-10-31T12:23:03;15.70;99.90
7290;DHT22;63176;52.678;13.250;2022-10-31T12:58:42;15.40;99.90
7290;DHT22;63176;52.678;13.250;2022-10-31T13:01:11;15.30;99.90
7290;DHT22;63176;52.678;13.250;2022-10-31T13:04:01;15.30;99.90
7290;DHT22;63176;52.678;13.250;2022-10-31T13:06:43;15.30;99.90
7290;DHT22;63176;52.678;13.250;2022-10-31T13:09:15;15.20;99.90
7290;DHT22;63176;52.678;13.250;2022-10-31T13:11:56;15.20;99.90
7290;DHT22;63176;52.678;13.250;2022-10-31T13:14:48;15.20;99.90
7290;DHT22;63176;52.678;13.250;2022-10-31T13:17:30;15.20;99.90
7290;DHT22;63176;52.678;13.250;2022-10-31T13:20:13;15.10;99.90
7290;DHT22;63176;52.678;13.250;2022-10-31T13:22:44;15.10;99.90
7290;DHT22;63176;52.678;13.250;2022-10-31T13:25:19;15.10;99.90
7290;DHT22;63176;52.678;13.250;2022-10-31T13:27:59;15.00;99.90
7290;DHT22;63176;52.678;13.250;2022-10-31T13:30:36;15.00;99.90
7290;DHT22;63176;52.678;13.250;2022-10-31T13:33:04;15.00;99.90
7290;DHT22;63176;52.678;13.250;2022-10-31T13:38:23;14.90;99.90
7290;DHT22;63176;52.678;13.250;2022-10-31T13:40:55;14.80;99.90
7290;DHT22;63176;52.678;13.250;2022-10-31T13:45:54;14.80;99.90
7290;DHT22;63176;52.678;13.250;2022-10-31T13:48:35;14.80;99.90
7290;DHT22;63176;52.678;13.250;2022-10-31T13:51:04;14.70;99.90
7290;DHT22;63176;52.678;13.250;2022-10-31T13:53:40;14.70;99.90
7290;DHT22;63176;52.678;13.250;2022-10-31T13:56:15;14.60;99.90
7290;DHT22;63176;52.678;13.250;2022-10-31T14:01:20;14.50;99.90
7290;DHT22;63176;52.678;13.250;2022-10-31T14:04:00;14.50;99.90
7290;DHT22;63176;52.678;13.250;2022-10-31T14:06:50;14.50;99.90
7290;DHT22;63176;52.678;13.250;2022-10-31T14:09:27;14.50;99.90
7290;DHT22;63176;52.678;13.250;2022-10-31T14:11:54;14.40;99.90
7290;DHT22;63176;52.678;13.250;2022-10-31T14:14:23;14.40;1.00
7290;DHT22;63176;52.678;13.250;2022-10-31T14:16:56;14.40;1.00
7290;DHT22;63176;52.678;13.250;2022-10-31T14:19:22;14.30;1.00
7290;DHT22;63176;52.678;13.250;2022-10-31T14:21:49;14.30;1.00
7290;DHT22;63176;52.678;13.250;2022-10-31T14:26:55;14.20;1.00
7290;DHT22;63176;52.678;13.250;2022-10-31T14:29:30;14.20;1.00
7290;DHT22;63176;52.678;13.250;2022-10-31T14:34:41;14.10;1.00
7290;DHT22;63176;52.678;13.250;2022-10-31T14:51:38;13.90;1.00
7290;DHT22;63176;52.678;13.250;2022-10-31T14:54:06;13.90;1.00
7290;DHT22;63176;52.678;13.250;2022-10-31T14:56:39;13.90;1.00
7290;DHT22;63176;52.678;13.250;2022-10-31T14:59:12;13.80;1.00
7290;DHT22;63176;52.678;13.250;2022-10-31T15:01:39;13.80;1.00
7290;DHT22;63176;52.678;13.250;2022-10-31T15:04:21;13.80;1.00
7290;DHT22;63176;52.678;13.250;2022-10-31T15:06:50;13.80;1.00
7290;DHT22;63176;52.678;13.250;2022-10-31T15:09:35;13.80;1.00
7290;DHT22;63176;52.678;13.250;2022-10-31T15:12:23;13.80;1.00
7290;DHT22;63176;52.678;13.250;2022-10-31T15:14:49;13.80;1.00
7290;DHT22;63176;52.678;13.250;2022-10-31T15:17:15;13.70;1.00
7290;DHT22;63176;52.678;13.250;2022-10-31T15:19:42;13.70;1.00
7290;DHT22;63176;52.678;13.250;2022-10-31T15:22:19;13.70;1.00
7290;DHT22;63176;52.678;13.250;2022-10-31T15:24:45;13.70;1.00
7290;DHT22;63176;52.678;13.250;2022-10-31T15:27:13;13.70;1.00
7290;DHT22;63176;52.678;13.250;2022-10-31T15:29:54;13.70;1.00
7290;DHT22;63176;52.678;13.250;2022-10-31T15:32:28;13.70;1.00
7290;DHT22;63176;52.678;13.250;2022-10-31T15:34:55;13.70;1.00
7290;DHT22;63176;52.678;13.250;2022-10-31T15:37:23;13.60;1.00
7290;DHT22;63176;52.678;13.250;2022-10-31T15:39:51;13.60;1.00
7290;DHT22;63176;52.678;13.250;2022-10-31T15:42:28;13.60;1.00
7290;DHT22;63176;52.678;13.250;2022-10-31T15:45:21;13.60;1.00
7290;DHT22;63176;52.678;13.250;2022-10-31T15:47:55;13.60;27.90
7290;DHT22;63176;52.678;13.250;2022-10-31T15:50:31;13.60;59.60
7290;DHT22;63176;52.678;13.250;2022-10-31T15:52:57;13.60;74.00
7290;DHT22;63176;52.678;13.250;2022-10-31T15:55:29;13.50;97.50
7290;DHT22;63176;52.678;13.250;2022-10-31T15:58:14;13.50;99.90
7290;DHT22;63176;52.678;13.250;2022-10-31T16:00:41;13.50;99.90
7290;DHT22;63176;52.678;13.250;2022-10-31T16:05:47;13.50;99.90
7290;DHT22;63176;52.678;13.250;2022-10-31T16:08:44;13.50;99.90
7290;DHT22;63176;52.678;13.250;2022-10-31T16:14:13;13.50;1.00
7290;DHT22;63176;52.678;13.250;2022-10-31T16:16:42;13.40;1.00
7290;DHT22;63176;52.678;13.250;2022-10-31T16:19:31;13.40;1.00
7290;DHT22;63176;52.678;13.250;2022-10-31T16:22:09;13.40;1.00
7290;DHT22;63176;52.678;13.250;2022-10-31T16:25:13;13.40;89.30
7290;DHT22;63176;52.678;13.250;2022-10-31T16:27:46;13.40;99.90
7290;DHT22;63176;52.678;13.250;2022-10-31T16:30:40;13.50;99.90
7290;DHT22;63176;52.678;13.250;2022-10-31T16:35:57;13.40;99.90
7290;DHT22;63176;52.678;13.250;2022-10-31T16:38:23;13.40;99.90
7290;DHT22;63176;52.678;13.250;2022-10-31T16:40:50;13.40;99.90
7290;DHT22;63176;52.678;13.250;2022-10-31T16:43:18;13.40;99.90
7290;DHT22;63176;52.678;13.250;2022-10-31T16:45:49;13.40;99.90
7290;DHT22;63176;52.678;13.250;2022-10-31T16:48:20;13.40;99.90
7290;DHT22;63176;52.678;13.250;2022-10-31T16:50:48;13.40;99.90
7290;DHT22;63176;52.678;13.250;2022-10-31T16:53:15;13.40;99.90
7290;DHT22;63176;52.678;13.250;2022-10-31T16:55:50;13.40;99.90
7290;DHT22;63176;52.678;13.250;2022-10-31T16:58:26;13.40;99.90
7290;DHT22;63176;52.678;13.250;2022-10-31T17:00:52;13.40;99.90
7290;DHT22;63176;52.678;13.250;2022-10-31T17:03:19;13.40;99.90
7290;DHT22;63176;52.678;13.250;2022-10-31T17:05:45;13.40;99.90
7290;DHT22;63176;52.678;13.250;2022-10-31T17:08:11;13.40;99.90
7290;DHT22;63176;52.678;13.250;2022-10-31T17:10:37;13.40;99.90
7290;DHT22;63176;52.678;13.250;2022-10-31T17:13:05;13.40;99.90
7290;DHT22;63176;52.678;13.250;2022-10-31T17:15:44;13.40;99.90
7290;DHT22;63176;52.678;13.250;2022-10-31T17:18:15;13.40;99.90
7290;DHT22;63176;52.678;13.250;2022-10-31T17:20:41;13.40;99.90
7290;DHT22;63176;52.678;13.250;2022-10-31T17:23:09;13.40;99.90
7290;DHT22;63176;52.678;13.250;2022-10-31T17:25:36;13.40;99.90
7290;DHT22;63176;52.678;13.250;2022-10-31T17:28:02;13.40;99.90
7290;DHT22;63176;52.678;13.250;2022-10-31T17:30:30;13.40;99.90
7290;DHT22;63176;52.678;13.250;2022-10-31T17:32:55;13.40;99.90
7290;DHT22;63176;52.678;13.250;2022-10-31T17:35:21;13.40;99.90
7290;DHT22;63176;52.678;13.250;2022-10-31T17:37:47;13.40;99.90
7290;DHT22;63176;52.678;13.250;2022-10-31T17:40:18;13.40;99.90
7290;DHT22;63176;52.678;13.250;2022-10-31T17:42:51;13.40;99.90
7290;DHT22;63176;52.678;13.250;2022-10-31T17:45:18;13.40;99.90
7290;DHT22;63176;52.678;13.250;2022-10-31T17:47:46;13.30;99.90
7290;DHT22;63176;52.678;13.250;2022-10-31T17:50:13;13.30;99.90
7290;DHT22;63176;52.678;13.250;2022-10-31T17:52:39;13.30;99.90
7290;DHT22;63176;52.678;13.250;2022-10-31T17:55:04;13.30;99.90
7290;DHT22;63176;52.678;13.250;2022-10-31T17:57:34;13.30;99.90
7290;DHT22;63176;52.678;13.250;2022-10-31T18:00:02;13.30;99.90
7290;DHT22;63176;52.678;13.250;2022-10-31T18:02:27;13.30;99.90
7290;DHT22;63176;52.678;13.250;2022-10-31T18:04:53;13.30;99.90
7290;DHT22;63176;52.678;13.250;2022-10-31T18:07:19;13.30;99.90
7290;DHT22;63176;52.678;13.250;2022-10-31T18:09:46;13.30;99.90
7290;DHT22;63176;52.678;13.250;2022-10-31T18:12:12;13.30;99.90
7290;DHT22;63176;52.678;13.250;2022-10-31T18:14:39;13.30;99.90
7290;DHT22;63176;52.678;13.250;2022-10-31T18:17:05;13.30;99.90
7290;DHT22;63176;52.678;13.250;2022-10-31T18:19:31;13.30;99.90
7290;DHT22;63176;52.678;13.250;2022-10-31T18:21:56;13.30;1.00
7290;DHT22;63176;52.678;13.250;2022-10-31T18:24:22;13.30;1.00
7290;DHT22;63176;52.678;13.250;2022-10-31T18:26:48;13.30;1.00
7290;DHT22;63176;52.678;13.250;2022-10-31T18:29:14;13.30;1.00